sensor_id;sensor_type;location;lat;lon;timestamp;P1;durP1;ratioP1;P2;durP2;ratioP2
37425;SDS011;23285;50.180;7.036;2023-03-31T00:02:04;6.60;;;2.87;;
37425;SDS011;23285;50.180;7.036;2023-03-31T00:04:58;6.93;;;2.80;;
37425;SDS011;23285;50.180;7.036;2023-03-31T00:07:44;9.17;;;3.30;;
37425;SDS011;23285;50.180;7.036;2023-03-31T00:10:32;6.53;;;2.70;;
37425;SDS011;23285;50.180;7.036;2023-03-31T00:13:19;10.33;;;2.90;;
37425;SDS011;23285;50.180;7.036;2023-03-31T00:16:06;8.93;;;3.63;;
37425;SDS011;23285;50.180;7.036;2023-03-31T00:18:54;8.63;;;3.07;;
37425;SDS011;23285;50.180;7.036;2023-03-31T00:21:42;11.77;;;3.37;;
37425;SDS011;23285;50.180;7.036;2023-03-31T00:24:28;7.90;;;2.90;;
37425;SDS011;23285;50.180;7.036;2023-03-31T00:27:16;6.33;;;4.27;;
37425;SDS011;23285;50.180;7.036;2023-03-31T00:30:03;7.10;;;2.80;;
37425;SDS011;23285;50.180;7.036;2023-03-31T00:32:50;8.70;;;3.47;;
37425;SDS011;23285;50.180;7.036;2023-03-31T00:35:38;9.43;;;3.33;;
37425;SDS011;23285;50.180;7.036;2023-03-31T00:38:25;7.83;;;3.20;;
37425;SDS011;23285;50.180;7.036;2023-03-31T00:41:13;6.33;;;2.87;;
37425;SDS011;23285;50.180;7.036;2023-03-31T00:44:01;7.83;;;2.83;;
37425;SDS011;23285;50.180;7.036;2023-03-31T00:46:52;5.90;;;3.17;;
37425;SDS011;23285;50.180;7.036;2023-03-31T00:49:41;11.93;;;3.00;;
37425;SDS011;23285;50.180;7.036;2023-03-31T00:52:31;8.80;;;2.83;;
37425;SDS011;23285;50.180;7.036;2023-03-31T00:55:22;9.30;;;3.10;;
37425;SDS011;23285;50.180;7.036;2023-03-31T00:58:11;12.27;;;2.57;;
37425;SDS011;23285;50.180;7.036;2023-03-31T01:00:59;6.10;;;2.60;;
37425;SDS011;23285;50.180;7.036;2023-03-31T01:03:47;11.10;;;3.13;;
37425;SDS011;23285;50.180;7.036;2023-03-31T01:06:36;11.07;;;2.60;;
37425;SDS011;23285;50.180;7.036;2023-03-31T01:09:32;7.43;;;2.93;;
37425;SDS011;23285;50.180;7.036;2023-03-31T01:12:20;7.93;;;2.43;;
37425;SDS011;23285;50.180;7.036;2023-03-31T01:15:08;12.67;;;2.93;;
37425;SDS011;23285;50.180;7.036;2023-03-31T01:17:56;11.23;;;3.00;;
37425;SDS011;23285;50.180;7.036;2023-03-31T01:20:47;8.57;;;2.77;;
37425;SDS011;23285;50.180;7.036;2023-03-31T01:24:00;8.17;;;2.30;;
37425;SDS011;23285;50.180;7.036;2023-03-31T01:27:05;11.87;;;3.20;;
37425;SDS011;23285;50.180;7.036;2023-03-31T01:30:01;8.67;;;2.53;;
37425;SDS011;23285;50.180;7.036;2023-03-31T01:33:03;9.40;;;3.03;;
37425;SDS011;23285;50.180;7.036;2023-03-31T01:42:33;10.77;;;3.37;;
37425;SDS011;23285;50.180;7.036;2023-03-31T01:45:28;9.70;;;2.73;;
37425;SDS011;23285;50.180;7.036;2023-03-31T01:48:17;11.27;;;2.77;;
37425;SDS011;23285;50.180;7.036;2023-03-31T01:51:08;8.00;;;2.53;;
37425;SDS011;23285;50.180;7.036;2023-03-31T01:54:02;11.93;;;2.73;;
37425;SDS011;23285;50.180;7.036;2023-03-31T01:56:51;9.43;;;2.50;;
37425;SDS011;23285;50.180;7.036;2023-03-31T01:59:45;10.83;;;2.80;;
37425;SDS011;23285;50.180;7.036;2023-03-31T02:02:35;10.93;;;2.70;;
37425;SDS011;23285;50.180;7.036;2023-03-31T02:05:23;10.30;;;2.87;;
37425;SDS011;23285;50.180;7.036;2023-03-31T02:08:10;15.83;;;3.40;;
37425;SDS011;23285;50.180;7.036;2023-03-31T02:11:00;11.23;;;2.93;;
37425;SDS011;23285;50.180;7.036;2023-03-31T02:13:47;13.67;;;3.27;;
37425;SDS011;23285;50.180;7.036;2023-03-31T02:16:37;8.53;;;2.53;;
37425;SDS011;23285;50.180;7.036;2023-03-31T02:19:31;12.10;;;3.20;;
37425;SDS011;23285;50.180;7.036;2023-03-31T02:22:18;12.13;;;2.70;;
37425;SDS011;23285;50.180;7.036;2023-03-31T02:25:09;13.27;;;2.83;;
37425;SDS011;23285;50.180;7.036;2023-03-31T02:28:00;16.00;;;3.33;;
37425;SDS011;23285;50.180;7.036;2023-03-31T02:30:50;12.13;;;3.30;;
37425;SDS011;23285;50.180;7.036;2023-03-31T02:33:39;9.13;;;3.03;;
37425;SDS011;23285;50.180;7.036;2023-03-31T02:36:26;7.20;;;2.70;;
37425;SDS011;23285;50.180;7.036;2023-03-31T02:39:13;8.50;;;2.13;;
37425;SDS011;23285;50.180;7.036;2023-03-31T02:42:04;9.10;;;2.70;;
37425;SDS011;23285;50.180;7.036;2023-03-31T02:44:51;8.47;;;2.80;;
37425;SDS011;23285;50.180;7.036;2023-03-31T02:47:38;12.00;;;3.20;;
37425;SDS011;23285;50.180;7.036;2023-03-31T02:50:28;13.20;;;3.50;;
37425;SDS011;23285;50.180;7.036;2023-03-31T02:53:18;15.13;;;3.50;;
37425;SDS011;23285;50.180;7.036;2023-03-31T02:56:12;11.57;;;2.80;;
37425;SDS011;23285;50.180;7.036;2023-03-31T02:59:13;13.43;;;3.13;;
37425;SDS011;23285;50.180;7.036;2023-03-31T03:02:19;13.87;;;3.47;;
37425;SDS011;23285;50.180;7.036;2023-03-31T03:05:16;18.13;;;3.77;;
37425;SDS011;23285;50.180;7.036;2023-03-31T03:08:25;12.70;;;3.03;;
37425;SDS011;23285;50.180;7.036;2023-03-31T03:11:19;14.67;;;3.43;;
37425;SDS011;23285;50.180;7.036;2023-03-31T03:14:12;17.50;;;3.33;;
37425;SDS011;23285;50.180;7.036;2023-03-31T03:17:08;9.57;;;2.63;;
37425;SDS011;23285;50.180;7.036;2023-03-31T03:19:58;18.10;;;3.17;;
37425;SDS011;23285;50.180;7.036;2023-03-31T03:22:45;17.23;;;4.10;;
37425;SDS011;23285;50.180;7.036;2023-03-31T03:25:33;10.57;;;2.70;;
37425;SDS011;23285;50.180;7.036;2023-03-31T03:28:19;16.63;;;3.83;;
37425;SDS011;23285;50.180;7.036;2023-03-31T03:31:05;9.77;;;2.97;;
37425;SDS011;23285;50.180;7.036;2023-03-31T03:33:52;7.87;;;2.37;;
37425;SDS011;23285;50.180;7.036;2023-03-31T03:36:39;17.47;;;3.07;;
37425;SDS011;23285;50.180;7.036;2023-03-31T03:39:25;13.17;;;3.27;;
37425;SDS011;23285;50.180;7.036;2023-03-31T03:42:13;7.43;;;2.10;;
37425;SDS011;23285;50.180;7.036;2023-03-31T03:44:59;9.53;;;2.87;;
37425;SDS011;23285;50.180;7.036;2023-03-31T03:47:45;11.20;;;2.53;;
37425;SDS011;23285;50.180;7.036;2023-03-31T03:50:34;9.53;;;2.70;;
37425;SDS011;23285;50.180;7.036;2023-03-31T03:53:21;13.63;;;3.37;;
37425;SDS011;23285;50.180;7.036;2023-03-31T03:56:08;10.70;;;2.73;;
37425;SDS011;23285;50.180;7.036;2023-03-31T03:58:55;9.13;;;3.10;;
37425;SDS011;23285;50.180;7.036;2023-03-31T04:01:42;9.47;;;2.77;;
37425;SDS011;23285;50.180;7.036;2023-03-31T04:04:28;11.93;;;2.47;;
37425;SDS011;23285;50.180;7.036;2023-03-31T04:07:15;12.03;;;3.50;;
37425;SDS011;23285;50.180;7.036;2023-03-31T04:10:01;9.50;;;2.50;;
37425;SDS011;23285;50.180;7.036;2023-03-31T04:12:48;10.03;;;2.83;;
37425;SDS011;23285;50.180;7.036;2023-03-31T04:15:36;9.80;;;3.30;;
37425;SDS011;23285;50.180;7.036;2023-03-31T04:18:23;9.03;;;2.80;;
37425;SDS011;23285;50.180;7.036;2023-03-31T04:21:09;12.57;;;3.30;;
37425;SDS011;23285;50.180;7.036;2023-03-31T04:23:58;25.27;;;19.10;;
37425;SDS011;23285;50.180;7.036;2023-03-31T04:26:47;10.60;;;3.03;;
37425;SDS011;23285;50.180;7.036;2023-03-31T04:29:34;5.53;;;2.20;;
37425;SDS011;23285;50.180;7.036;2023-03-31T04:32:22;9.70;;;3.10;;
37425;SDS011;23285;50.180;7.036;2023-03-31T04:35:08;8.90;;;2.40;;
37425;SDS011;23285;50.180;7.036;2023-03-31T04:37:58;9.63;;;2.67;;
37425;SDS011;23285;50.180;7.036;2023-03-31T04:40:46;6.83;;;2.20;;
37425;SDS011;23285;50.180;7.036;2023-03-31T04:43:33;5.70;;;1.97;;
37425;SDS011;23285;50.180;7.036;2023-03-31T04:46:19;7.60;;;2.10;;
37425;SDS011;23285;50.180;7.036;2023-03-31T04:49:08;8.23;;;2.23;;
37425;SDS011;23285;50.180;7.036;2023-03-31T04:51:54;5.67;;;2.20;;
37425;SDS011;23285;50.180;7.036;2023-03-31T04:54:40;6.43;;;2.27;;
37425;SDS011;23285;50.180;7.036;2023-03-31T04:57:26;8.53;;;2.73;;
37425;SDS011;23285;50.180;7.036;2023-03-31T05:00:13;7.10;;;3.00;;
37425;SDS011;23285;50.180;7.036;2023-03-31T05:03:00;4.40;;;1.57;;
37425;SDS011;23285;50.180;7.036;2023-03-31T05:05:48;3.73;;;1.70;;
37425;SDS011;23285;50.180;7.036;2023-03-31T05:08:34;6.03;;;2.70;;
37425;SDS011;23285;50.180;7.036;2023-03-31T05:11:21;5.17;;;2.20;;
37425;SDS011;23285;50.180;7.036;2023-03-31T05:14:08;7.27;;;1.90;;
37425;SDS011;23285;50.180;7.036;2023-03-31T05:16:54;7.80;;;2.10;;
37425;SDS011;23285;50.180;7.036;2023-03-31T05:19:42;6.70;;;2.30;;
37425;SDS011;23285;50.180;7.036;2023-03-31T05:22:31;4.83;;;2.10;;
37425;SDS011;23285;50.180;7.036;2023-03-31T05:25:18;2.93;;;1.43;;
37425;SDS011;23285;50.180;7.036;2023-03-31T05:28:05;4.10;;;1.57;;
37425;SDS011;23285;50.180;7.036;2023-03-31T05:30:52;4.87;;;2.50;;
37425;SDS011;23285;50.180;7.036;2023-03-31T05:33:39;3.17;;;1.83;;
37425;SDS011;23285;50.180;7.036;2023-03-31T05:36:25;3.17;;;1.60;;
37425;SDS011;23285;50.180;7.036;2023-03-31T05:39:13;2.80;;;1.40;;
37425;SDS011;23285;50.180;7.036;2023-03-31T05:42:00;2.47;;;1.27;;
37425;SDS011;23285;50.180;7.036;2023-03-31T05:44:46;4.43;;;1.60;;
37425;SDS011;23285;50.180;7.036;2023-03-31T05:47:33;10.93;;;5.63;;
37425;SDS011;23285;50.180;7.036;2023-03-31T05:50:20;5.07;;;2.30;;
37425;SDS011;23285;50.180;7.036;2023-03-31T05:53:06;2.67;;;2.03;;
37425;SDS011;23285;50.180;7.036;2023-03-31T05:55:56;3.43;;;1.60;;
37425;SDS011;23285;50.180;7.036;2023-03-31T05:58:44;3.60;;;1.63;;
37425;SDS011;23285;50.180;7.036;2023-03-31T06:01:30;4.27;;;2.03;;
37425;SDS011;23285;50.180;7.036;2023-03-31T06:04:16;32.37;;;21.80;;
37425;SDS011;23285;50.180;7.036;2023-03-31T06:07:02;4.80;;;1.80;;
37425;SDS011;23285;50.180;7.036;2023-03-31T06:09:49;4.43;;;2.43;;
37425;SDS011;23285;50.180;7.036;2023-03-31T06:12:37;3.30;;;1.90;;
37425;SDS011;23285;50.180;7.036;2023-03-31T06:15:24;4.47;;;1.80;;
37425;SDS011;23285;50.180;7.036;2023-03-31T06:18:10;6.17;;;3.63;;
37425;SDS011;23285;50.180;7.036;2023-03-31T06:20:56;6.23;;;3.70;;
37425;SDS011;23285;50.180;7.036;2023-03-31T06:23:43;4.60;;;2.17;;
37425;SDS011;23285;50.180;7.036;2023-03-31T06:26:30;5.63;;;1.90;;
37425;SDS011;23285;50.180;7.036;2023-03-31T06:29:18;5.07;;;1.77;;
37425;SDS011;23285;50.180;7.036;2023-03-31T06:32:04;4.03;;;1.80;;
37425;SDS011;23285;50.180;7.036;2023-03-31T06:34:50;4.23;;;2.07;;
37425;SDS011;23285;50.180;7.036;2023-03-31T06:37:37;6.67;;;3.87;;
37425;SDS011;23285;50.180;7.036;2023-03-31T06:40:23;2.27;;;1.60;;
37425;SDS011;23285;50.180;7.036;2023-03-31T06:43:10;3.70;;;2.13;;
37425;SDS011;23285;50.180;7.036;2023-03-31T06:45:57;4.50;;;1.73;;
37425;SDS011;23285;50.180;7.036;2023-03-31T06:48:44;6.10;;;2.07;;
37425;SDS011;23285;50.180;7.036;2023-03-31T06:51:30;3.83;;;2.10;;
37425;SDS011;23285;50.180;7.036;2023-03-31T06:54:16;4.00;;;2.30;;
37425;SDS011;23285;50.180;7.036;2023-03-31T06:57:03;2.60;;;1.87;;
37425;SDS011;23285;50.180;7.036;2023-03-31T06:59:49;5.40;;;2.07;;
37425;SDS011;23285;50.180;7.036;2023-03-31T07:02:36;4.47;;;1.77;;
37425;SDS011;23285;50.180;7.036;2023-03-31T07:05:23;4.13;;;2.00;;
37425;SDS011;23285;50.180;7.036;2023-03-31T07:08:11;3.57;;;1.70;;
37425;SDS011;23285;50.180;7.036;2023-03-31T07:10:59;4.60;;;3.27;;
37425;SDS011;23285;50.180;7.036;2023-03-31T07:13:45;2.83;;;1.70;;
37425;SDS011;23285;50.180;7.036;2023-03-31T07:16:32;2.97;;;1.97;;
37425;SDS011;23285;50.180;7.036;2023-03-31T07:19:21;3.90;;;1.80;;
37425;SDS011;23285;50.180;7.036;2023-03-31T07:22:07;3.03;;;1.90;;
37425;SDS011;23285;50.180;7.036;2023-03-31T07:24:54;3.83;;;1.77;;
37425;SDS011;23285;50.180;7.036;2023-03-31T07:27:41;6.47;;;3.80;;
37425;SDS011;23285;50.180;7.036;2023-03-31T07:30:27;5.30;;;2.00;;
37425;SDS011;23285;50.180;7.036;2023-03-31T07:33:14;6.70;;;2.27;;
37425;SDS011;23285;50.180;7.036;2023-03-31T07:36:04;3.97;;;2.07;;
37425;SDS011;23285;50.180;7.036;2023-03-31T07:38:50;4.90;;;1.70;;
37425;SDS011;23285;50.180;7.036;2023-03-31T07:41:36;5.83;;;2.30;;
37425;SDS011;23285;50.180;7.036;2023-03-31T07:44:23;6.10;;;2.50;;
37425;SDS011;23285;50.180;7.036;2023-03-31T07:47:09;4.67;;;2.03;;
37425;SDS011;23285;50.180;7.036;2023-03-31T07:49:56;5.97;;;2.57;;
37425;SDS011;23285;50.180;7.036;2023-03-31T07:52:44;6.77;;;2.53;;
37425;SDS011;23285;50.180;7.036;2023-03-31T07:55:30;4.70;;;2.57;;
37425;SDS011;23285;50.180;7.036;2023-03-31T07:58:17;4.03;;;2.10;;
37425;SDS011;23285;50.180;7.036;2023-03-31T08:01:03;9.00;;;3.00;;
37425;SDS011;23285;50.180;7.036;2023-03-31T08:03:51;10.80;;;3.13;;
37425;SDS011;23285;50.180;7.036;2023-03-31T08:06:38;8.87;;;3.13;;
37425;SDS011;23285;50.180;7.036;2023-03-31T08:09:25;5.60;;;2.47;;
37425;SDS011;23285;50.180;7.036;2023-03-31T08:12:12;12.07;;;3.43;;
37425;SDS011;23285;50.180;7.036;2023-03-31T08:14:59;9.07;;;2.57;;
37425;SDS011;23285;50.180;7.036;2023-03-31T08:17:45;10.97;;;3.33;;
37425;SDS011;23285;50.180;7.036;2023-03-31T08:20:32;8.47;;;3.20;;
37425;SDS011;23285;50.180;7.036;2023-03-31T08:23:18;12.43;;;3.57;;
37425;SDS011;23285;50.180;7.036;2023-03-31T08:26:10;13.90;;;4.03;;
37425;SDS011;23285;50.180;7.036;2023-03-31T08:28:58;12.50;;;3.40;;
37425;SDS011;23285;50.180;7.036;2023-03-31T08:31:44;11.37;;;3.30;;
37425;SDS011;23285;50.180;7.036;2023-03-31T08:34:30;14.93;;;3.87;;
37425;SDS011;23285;50.180;7.036;2023-03-31T08:37:17;11.60;;;3.67;;
37425;SDS011;23285;50.180;7.036;2023-03-31T08:40:04;10.10;;;3.07;;
37425;SDS011;23285;50.180;7.036;2023-03-31T08:42:55;8.00;;;3.00;;
37425;SDS011;23285;50.180;7.036;2023-03-31T08:45:45;12.03;;;3.57;;
37425;SDS011;23285;50.180;7.036;2023-03-31T08:48:33;12.63;;;3.37;;
37425;SDS011;23285;50.180;7.036;2023-03-31T08:51:29;9.53;;;3.07;;
37425;SDS011;23285;50.180;7.036;2023-03-31T08:54:19;11.47;;;2.73;;
37425;SDS011;23285;50.180;7.036;2023-03-31T08:57:10;15.67;;;3.37;;
37425;SDS011;23285;50.180;7.036;2023-03-31T09:00:00;11.47;;;3.23;;
37425;SDS011;23285;50.180;7.036;2023-03-31T09:02:51;12.60;;;3.07;;
37425;SDS011;23285;50.180;7.036;2023-03-31T09:05:42;10.83;;;2.93;;
37425;SDS011;23285;50.180;7.036;2023-03-31T09:08:36;12.97;;;2.83;;
37425;SDS011;23285;50.180;7.036;2023-03-31T09:11:25;15.23;;;3.00;;
37425;SDS011;23285;50.180;7.036;2023-03-31T09:14:28;13.83;;;3.03;;
37425;SDS011;23285;50.180;7.036;2023-03-31T09:17:19;13.77;;;3.60;;
37425;SDS011;23285;50.180;7.036;2023-03-31T09:20:11;17.03;;;3.60;;
37425;SDS011;23285;50.180;7.036;2023-03-31T09:22:59;21.63;;;4.67;;
37425;SDS011;23285;50.180;7.036;2023-03-31T09:25:46;12.80;;;3.87;;
37425;SDS011;23285;50.180;7.036;2023-03-31T09:28:33;11.97;;;3.70;;
37425;SDS011;23285;50.180;7.036;2023-03-31T09:31:23;15.80;;;3.90;;
37425;SDS011;23285;50.180;7.036;2023-03-31T09:34:13;17.47;;;4.23;;
37425;SDS011;23285;50.180;7.036;2023-03-31T09:37:02;21.47;;;4.37;;
37425;SDS011;23285;50.180;7.036;2023-03-31T09:39:48;15.60;;;3.60;;
37425;SDS011;23285;50.180;7.036;2023-03-31T09:42:35;14.43;;;3.87;;
37425;SDS011;23285;50.180;7.036;2023-03-31T09:45:22;11.73;;;3.33;;
37425;SDS011;23285;50.180;7.036;2023-03-31T09:48:09;21.07;;;4.70;;
37425;SDS011;23285;50.180;7.036;2023-03-31T09:50:59;14.60;;;3.80;;
37425;SDS011;23285;50.180;7.036;2023-03-31T09:53:46;15.73;;;3.70;;
37425;SDS011;23285;50.180;7.036;2023-03-31T09:56:43;15.03;;;3.97;;
37425;SDS011;23285;50.180;7.036;2023-03-31T09:59:32;18.53;;;4.20;;
37425;SDS011;23285;50.180;7.036;2023-03-31T10:05:26;18.10;;;4.57;;
37425;SDS011;23285;50.180;7.036;2023-03-31T10:08:25;17.40;;;4.40;;
37425;SDS011;23285;50.180;7.036;2023-03-31T10:11:12;18.03;;;4.80;;
37425;SDS011;23285;50.180;7.036;2023-03-31T10:14:00;17.30;;;4.10;;
37425;SDS011;23285;50.180;7.036;2023-03-31T10:16:49;15.53;;;4.37;;
37425;SDS011;23285;50.180;7.036;2023-03-31T10:19:35;15.03;;;3.90;;
37425;SDS011;23285;50.180;7.036;2023-03-31T10:22:26;17.53;;;4.17;;
37425;SDS011;23285;50.180;7.036;2023-03-31T10:25:15;11.97;;;3.50;;
37425;SDS011;23285;50.180;7.036;2023-03-31T10:28:03;11.47;;;3.00;;
37425;SDS011;23285;50.180;7.036;2023-03-31T10:30:50;10.07;;;2.17;;
37425;SDS011;23285;50.180;7.036;2023-03-31T10:33:38;7.80;;;3.20;;
37425;SDS011;23285;50.180;7.036;2023-03-31T10:36:28;13.23;;;3.57;;
37425;SDS011;23285;50.180;7.036;2023-03-31T10:39:15;5.17;;;1.80;;
37425;SDS011;23285;50.180;7.036;2023-03-31T10:42:03;8.63;;;1.83;;
37425;SDS011;23285;50.180;7.036;2023-03-31T10:44:50;9.20;;;1.87;;
37425;SDS011;23285;50.180;7.036;2023-03-31T10:47:56;10.50;;;2.10;;
37425;SDS011;23285;50.180;7.036;2023-03-31T10:50:43;5.37;;;1.87;;
37425;SDS011;23285;50.180;7.036;2023-03-31T10:53:30;7.67;;;2.30;;
37425;SDS011;23285;50.180;7.036;2023-03-31T10:56:35;6.90;;;2.30;;
37425;SDS011;23285;50.180;7.036;2023-03-31T10:59:32;8.37;;;2.10;;
37425;SDS011;23285;50.180;7.036;2023-03-31T11:02:34;9.63;;;2.77;;
37425;SDS011;23285;50.180;7.036;2023-03-31T11:05:46;14.70;;;2.90;;
37425;SDS011;23285;50.180;7.036;2023-03-31T11:08:39;12.47;;;2.93;;
37425;SDS011;23285;50.180;7.036;2023-03-31T11:11:34;14.63;;;3.40;;
37425;SDS011;23285;50.180;7.036;2023-03-31T11:14:28;16.87;;;4.07;;
37425;SDS011;23285;50.180;7.036;2023-03-31T11:17:23;13.80;;;3.63;;
37425;SDS011;23285;50.180;7.036;2023-03-31T11:20:14;19.47;;;3.70;;
37425;SDS011;23285;50.180;7.036;2023-03-31T11:23:04;15.17;;;4.07;;
37425;SDS011;23285;50.180;7.036;2023-03-31T11:25:59;13.73;;;3.97;;
37425;SDS011;23285;50.180;7.036;2023-03-31T11:28:50;16.00;;;3.57;;
37425;SDS011;23285;50.180;7.036;2023-03-31T11:31:42;19.67;;;4.43;;
37425;SDS011;23285;50.180;7.036;2023-03-31T11:34:43;15.57;;;3.90;;
37425;SDS011;23285;50.180;7.036;2023-03-31T11:37:35;16.07;;;4.27;;
37425;SDS011;23285;50.180;7.036;2023-03-31T11:40:38;15.07;;;4.27;;
37425;SDS011;23285;50.180;7.036;2023-03-31T11:43:29;16.03;;;3.93;;
37425;SDS011;23285;50.180;7.036;2023-03-31T11:46:18;18.83;;;4.07;;
37425;SDS011;23285;50.180;7.036;2023-03-31T11:49:09;16.70;;;4.00;;
37425;SDS011;23285;50.180;7.036;2023-03-31T11:52:05;16.57;;;3.70;;
37425;SDS011;23285;50.180;7.036;2023-03-31T11:54:53;17.07;;;3.80;;
37425;SDS011;23285;50.180;7.036;2023-03-31T11:57:44;19.73;;;4.33;;
37425;SDS011;23285;50.180;7.036;2023-03-31T12:00:32;17.83;;;3.90;;
37425;SDS011;23285;50.180;7.036;2023-03-31T12:03:22;15.97;;;4.17;;
37425;SDS011;23285;50.180;7.036;2023-03-31T12:06:17;19.80;;;4.30;;
37425;SDS011;23285;50.180;7.036;2023-03-31T12:09:10;19.53;;;4.23;;
37425;SDS011;23285;50.180;7.036;2023-03-31T12:12:03;16.10;;;3.97;;
37425;SDS011;23285;50.180;7.036;2023-03-31T12:14:56;13.33;;;4.10;;
37425;SDS011;23285;50.180;7.036;2023-03-31T12:17:46;16.03;;;3.60;;
37425;SDS011;23285;50.180;7.036;2023-03-31T12:20:38;16.70;;;4.20;;
37425;SDS011;23285;50.180;7.036;2023-03-31T12:23:26;16.00;;;3.83;;
37425;SDS011;23285;50.180;7.036;2023-03-31T12:26:21;15.10;;;4.03;;
37425;SDS011;23285;50.180;7.036;2023-03-31T12:29:15;15.30;;;3.73;;
37425;SDS011;23285;50.180;7.036;2023-03-31T12:32:11;17.60;;;4.57;;
37425;SDS011;23285;50.180;7.036;2023-03-31T12:35:03;12.30;;;3.33;;
37425;SDS011;23285;50.180;7.036;2023-03-31T12:37:58;9.80;;;2.83;;
37425;SDS011;23285;50.180;7.036;2023-03-31T12:40:57;10.43;;;2.60;;
37425;SDS011;23285;50.180;7.036;2023-03-31T12:44:00;7.50;;;2.40;;
37425;SDS011;23285;50.180;7.036;2023-03-31T12:47:00;8.13;;;2.47;;
37425;SDS011;23285;50.180;7.036;2023-03-31T12:50:08;9.30;;;2.90;;
37425;SDS011;23285;50.180;7.036;2023-03-31T12:53:13;12.77;;;3.17;;
37425;SDS011;23285;50.180;7.036;2023-03-31T12:56:06;9.40;;;2.60;;
37425;SDS011;23285;50.180;7.036;2023-03-31T12:58:52;7.07;;;2.50;;
37425;SDS011;23285;50.180;7.036;2023-03-31T13:01:48;9.50;;;2.77;;
37425;SDS011;23285;50.180;7.036;2023-03-31T13:04:54;12.50;;;3.00;;
37425;SDS011;23285;50.180;7.036;2023-03-31T13:07:41;8.60;;;2.60;;
37425;SDS011;23285;50.180;7.036;2023-03-31T13:10:28;9.20;;;2.10;;
37425;SDS011;23285;50.180;7.036;2023-03-31T13:13:15;5.63;;;1.60;;
37425;SDS011;23285;50.180;7.036;2023-03-31T13:16:02;7.10;;;2.87;;
37425;SDS011;23285;50.180;7.036;2023-03-31T13:18:50;10.03;;;2.97;;
37425;SDS011;23285;50.180;7.036;2023-03-31T13:21:50;13.40;;;3.03;;
37425;SDS011;23285;50.180;7.036;2023-03-31T13:24:38;7.03;;;2.30;;
37425;SDS011;23285;50.180;7.036;2023-03-31T13:27:28;10.83;;;2.60;;
37425;SDS011;23285;50.180;7.036;2023-03-31T13:33:37;10.33;;;2.90;;
37425;SDS011;23285;50.180;7.036;2023-03-31T13:36:40;10.47;;;2.80;;
37425;SDS011;23285;50.180;7.036;2023-03-31T13:39:44;11.30;;;2.70;;
37425;SDS011;23285;50.180;7.036;2023-03-31T13:42:45;10.37;;;2.97;;
37425;SDS011;23285;50.180;7.036;2023-03-31T13:49:15;8.30;;;2.50;;
37425;SDS011;23285;50.180;7.036;2023-03-31T13:59:13;4.67;;;1.90;;
37425;SDS011;23285;50.180;7.036;2023-03-31T14:05:28;5.73;;;1.70;;
37425;SDS011;23285;50.180;7.036;2023-03-31T14:08:18;8.77;;;2.20;;
37425;SDS011;23285;50.180;7.036;2023-03-31T14:11:17;8.77;;;1.83;;
37425;SDS011;23285;50.180;7.036;2023-03-31T14:14:04;9.47;;;2.60;;
37425;SDS011;23285;50.180;7.036;2023-03-31T14:16:53;5.40;;;1.87;;
37425;SDS011;23285;50.180;7.036;2023-03-31T14:19:55;9.00;;;2.63;;
37425;SDS011;23285;50.180;7.036;2023-03-31T14:22:54;11.70;;;2.73;;
37425;SDS011;23285;50.180;7.036;2023-03-31T14:25:59;9.97;;;2.83;;
37425;SDS011;23285;50.180;7.036;2023-03-31T14:31:58;8.73;;;2.37;;
37425;SDS011;23285;50.180;7.036;2023-03-31T14:34:52;9.20;;;2.50;;
37425;SDS011;23285;50.180;7.036;2023-03-31T14:37:48;10.37;;;2.50;;
37425;SDS011;23285;50.180;7.036;2023-03-31T14:40:34;8.90;;;2.57;;
37425;SDS011;23285;50.180;7.036;2023-03-31T14:43:29;10.87;;;2.90;;
37425;SDS011;23285;50.180;7.036;2023-03-31T14:46:18;10.77;;;2.57;;
37425;SDS011;23285;50.180;7.036;2023-03-31T14:49:20;10.47;;;2.77;;
37425;SDS011;23285;50.180;7.036;2023-03-31T14:52:12;13.13;;;3.30;;
37425;SDS011;23285;50.180;7.036;2023-03-31T14:55:00;12.10;;;2.93;;
37425;SDS011;23285;50.180;7.036;2023-03-31T14:57:47;16.80;;;3.20;;
37425;SDS011;23285;50.180;7.036;2023-03-31T15:00:37;8.33;;;2.67;;
37425;SDS011;23285;50.180;7.036;2023-03-31T15:03:24;9.03;;;2.90;;
37425;SDS011;23285;50.180;7.036;2023-03-31T15:06:13;7.90;;;3.00;;
37425;SDS011;23285;50.180;7.036;2023-03-31T15:09:02;8.60;;;1.80;;
37425;SDS011;23285;50.180;7.036;2023-03-31T15:11:52;3.93;;;1.80;;
37425;SDS011;23285;50.180;7.036;2023-03-31T15:14:42;6.83;;;1.97;;
37425;SDS011;23285;50.180;7.036;2023-03-31T15:17:31;4.50;;;1.70;;
37425;SDS011;23285;50.180;7.036;2023-03-31T15:20:24;7.00;;;2.07;;
37425;SDS011;23285;50.180;7.036;2023-03-31T15:23:19;5.90;;;1.70;;
37425;SDS011;23285;50.180;7.036;2023-03-31T15:26:08;7.73;;;2.00;;
37425;SDS011;23285;50.180;7.036;2023-03-31T15:28:58;8.47;;;2.13;;
37425;SDS011;23285;50.180;7.036;2023-03-31T15:31:46;6.13;;;1.90;;
37425;SDS011;23285;50.180;7.036;2023-03-31T15:34:33;5.87;;;1.90;;
37425;SDS011;23285;50.180;7.036;2023-03-31T15:37:20;9.33;;;1.97;;
37425;SDS011;23285;50.180;7.036;2023-03-31T15:40:14;6.17;;;1.90;;
37425;SDS011;23285;50.180;7.036;2023-03-31T15:43:04;7.93;;;1.80;;
37425;SDS011;23285;50.180;7.036;2023-03-31T15:45:54;6.90;;;2.07;;
37425;SDS011;23285;50.180;7.036;2023-03-31T15:48:47;6.50;;;1.80;;
37425;SDS011;23285;50.180;7.036;2023-03-31T15:51:35;9.63;;;2.47;;
37425;SDS011;23285;50.180;7.036;2023-03-31T15:54:28;6.63;;;1.93;;
37425;SDS011;23285;50.180;7.036;2023-03-31T15:57:29;5.57;;;2.30;;
37425;SDS011;23285;50.180;7.036;2023-03-31T16:00:40;8.57;;;2.00;;
37425;SDS011;23285;50.180;7.036;2023-03-31T16:03:32;6.70;;;1.60;;
37425;SDS011;23285;50.180;7.036;2023-03-31T16:06:23;6.83;;;1.90;;
37425;SDS011;23285;50.180;7.036;2023-03-31T16:09:18;6.57;;;2.17;;
37425;SDS011;23285;50.180;7.036;2023-03-31T16:12:13;4.13;;;1.70;;
37425;SDS011;23285;50.180;7.036;2023-03-31T16:15:05;8.67;;;1.90;;
37425;SDS011;23285;50.180;7.036;2023-03-31T16:17:53;10.70;;;2.43;;
37425;SDS011;23285;50.180;7.036;2023-03-31T16:20:43;4.13;;;1.90;;
37425;SDS011;23285;50.180;7.036;2023-03-31T16:23:36;8.57;;;2.83;;
37425;SDS011;23285;50.180;7.036;2023-03-31T16:26:26;6.57;;;2.20;;
37425;SDS011;23285;50.180;7.036;2023-03-31T16:29:18;7.33;;;2.03;;
37425;SDS011;23285;50.180;7.036;2023-03-31T16:32:07;7.93;;;2.03;;
37425;SDS011;23285;50.180;7.036;2023-03-31T16:34:56;8.17;;;2.07;;
37425;SDS011;23285;50.180;7.036;2023-03-31T16:37:45;7.77;;;1.97;;
37425;SDS011;23285;50.180;7.036;2023-03-31T16:40:33;7.10;;;1.70;;
37425;SDS011;23285;50.180;7.036;2023-03-31T16:43:22;7.33;;;2.47;;
37425;SDS011;23285;50.180;7.036;2023-03-31T16:46:09;9.10;;;1.93;;
37425;SDS011;23285;50.180;7.036;2023-03-31T16:48:57;5.90;;;1.97;;
37425;SDS011;23285;50.180;7.036;2023-03-31T16:51:43;6.30;;;2.30;;
37425;SDS011;23285;50.180;7.036;2023-03-31T16:54:29;10.20;;;2.60;;
37425;SDS011;23285;50.180;7.036;2023-03-31T16:57:16;7.57;;;1.93;;
37425;SDS011;23285;50.180;7.036;2023-03-31T17:00:04;4.40;;;1.40;;
37425;SDS011;23285;50.180;7.036;2023-03-31T17:02:52;6.20;;;1.57;;
37425;SDS011;23285;50.180;7.036;2023-03-31T17:05:39;6.27;;;1.97;;
37425;SDS011;23285;50.180;7.036;2023-03-31T17:08:27;6.43;;;2.00;;
37425;SDS011;23285;50.180;7.036;2023-03-31T17:11:14;9.10;;;2.37;;
37425;SDS011;23285;50.180;7.036;2023-03-31T17:14:00;9.37;;;1.70;;
37425;SDS011;23285;50.180;7.036;2023-03-31T17:16:48;5.37;;;1.70;;
37425;SDS011;23285;50.180;7.036;2023-03-31T17:19:35;5.80;;;1.87;;
37425;SDS011;23285;50.180;7.036;2023-03-31T17:22:23;6.63;;;1.83;;
37425;SDS011;23285;50.180;7.036;2023-03-31T17:25:09;7.93;;;1.87;;
37425;SDS011;23285;50.180;7.036;2023-03-31T17:27:56;6.20;;;1.70;;
37425;SDS011;23285;50.180;7.036;2023-03-31T17:30:44;6.37;;;1.90;;